Time;durP1;ratioP1;P1;durP2;ratioP2;P2;SDS_P1;SDS_P2;PMS_P1;PMS_P2;Temp;Humidity;BMP_temperature;BMP_pressure;BME280_temperature;BME280_humidity;BME280_pressure;Samples;Min_cycle;Max_cycle;Signal;HPM_P1;HPM_P2
2021/09/13 00:01:42;;;;;;;4.75;3.22;;;14.50;99.90;;;;;;4909609;29;20067;-70
2021/09/13 00:04:08;;;;;;;3.97;3.22;;;14.50;99.90;;;;;;4895641;29;20032;-71
2021/09/13 00:06:34;;;;;;;7.63;4.22;;;14.50;99.90;;;;;;4896068;29;20037;-74
2021/09/13 00:08:59;;;;;;;4.13;3.55;;;14.50;99.90;;;;;;4896503;29;20127;-70
2021/09/13 00:11:25;;;;;;;4.68;3.50;;;14.50;99.90;;;;;;4896179;29;20032;-72
2021/09/13 00:13:50;;;;;;;3.72;3.38;;;14.50;99.90;;;;;;4910417;29;20081;-71
2021/09/13 00:16:17;;;;;;;9.35;4.28;;;14.50;99.90;;;;;;4896103;29;20033;-71
2021/09/13 00:18:42;;;;;;;5.65;4.25;;;14.50;99.90;;;;;;4897263;29;20037;-71
2021/09/13 00:21:08;;;;;;;6.10;4.53;;;14.50;99.90;;;;;;4895069;29;20406;-71
2021/09/13 00:23:33;;;;;;;8.00;4.30;;;14.40;99.90;;;;;;4896673;29;20033;-72
2021/09/13 00:25:59;;;;;;;4.70;4.05;;;14.40;99.90;;;;;;4895722;29;20558;-72
2021/09/13 00:28:25;;;;;;;8.07;5.00;;;14.40;99.90;;;;;;4893119;29;20053;-73
2021/09/13 00:30:50;;;;;;;8.07;4.63;;;14.30;99.90;;;;;;4896724;29;20533;-74
2021/09/13 00:33:16;;;;;;;6.30;4.40;;;14.30;99.90;;;;;;4896763;29;20032;-72
2021/09/13 00:35:41;;;;;;;6.22;4.78;;;14.30;99.90;;;;;;4896065;29;20028;-70
2021/09/13 00:38:07;;;;;;;7.38;4.60;;;14.20;99.90;;;;;;4896710;29;20107;-70
2021/09/13 00:40:33;;;;;;;6.63;4.85;;;14.20;99.90;;;;;;4894435;29;20045;-70
2021/09/13 00:43:01;;;;;;;9.05;4.72;;;14.20;99.90;;;;;;4894810;29;20040;-70
2021/09/13 00:45:27;;;;;;;7.32;4.88;;;14.20;99.90;;;;;;4896341;29;20059;-70
2021/09/13 00:47:52;;;;;;;9.07;5.03;;;14.20;99.90;;;;;;4895816;29;20064;-70
2021/09/13 00:50:18;;;;;;;9.73;5.65;;;14.20;99.90;;;;;;4895969;29;20408;-71
2021/09/13 00:52:50;;;;;;;9.77;4.50;;;14.10;99.90;;;;;;4897064;29;20029;-70
2021/09/13 00:55:16;;;;;;;7.78;5.05;;;14.10;99.90;;;;;;4915092;29;20083;-70
2021/09/13 00:57:42;;;;;;;6.43;5.15;;;14.00;99.90;;;;;;4914427;29;20016;-70
2021/09/13 01:00:09;;;;;;;6.47;4.78;;;14.00;99.90;;;;;;4899639;29;20028;-70
2021/09/13 01:02:35;;;;;;;6.75;4.60;;;14.00;99.90;;;;;;4900081;29;20021;-70
2021/09/13 01:05:01;;;;;;;6.50;4.60;;;14.00;99.90;;;;;;4899616;29;20544;-70
2021/09/13 01:07:26;;;;;;;6.10;4.90;;;14.00;99.90;;;;;;4899413;29;20032;-70
2021/09/13 01:09:52;;;;;;;9.27;5.70;;;14.00;99.90;;;;;;4900046;29;20036;-70
2021/09/13 01:12:18;;;;;;;9.70;4.97;;;14.00;99.90;;;;;;4899794;29;20073;-70
2021/09/13 01:14:44;;;;;;;7.85;4.90;;;14.00;99.90;;;;;;4899070;29;20060;-71
2021/09/13 01:17:10;;;;;;;7.38;5.38;;;14.00;99.90;;;;;;4900027;29;20028;-70
2021/09/13 01:19:36;;;;;;;5.88;4.75;;;14.00;99.90;;;;;;4899320;29;20037;-70
2021/09/13 01:22:03;;;;;;;8.30;4.72;;;13.90;99.90;;;;;;4899988;29;20029;-70
2021/09/13 01:24:31;;;;;;;7.50;3.67;;;13.90;99.90;;;;;;4900274;29;20043;-70
2021/09/13 01:27:02;;;;;;;7.20;5.07;;;13.80;99.90;;;;;;4899824;29;20032;-70
2021/09/13 01:29:28;;;;;;;8.45;5.78;;;13.90;99.90;;;;;;4898283;29;20051;-70
2021/09/13 01:31:54;;;;;;;8.60;6.25;;;13.90;99.90;;;;;;4898741;29;20112;-71
2021/09/13 01:34:21;;;;;;;9.63;5.97;;;13.90;99.90;;;;;;4894876;29;20093;-70
2021/09/13 01:36:47;;;;;;;10.63;5.50;;;13.90;99.90;;;;;;4913915;29;20033;-70
2021/09/13 01:39:12;;;;;;;6.80;5.47;;;14.00;99.90;;;;;;4899385;29;20111;-70
2021/09/13 01:41:38;;;;;;;8.65;5.15;;;14.00;99.90;;;;;;4898785;29;20429;-71
2021/09/13 01:44:04;;;;;;;5.97;4.75;;;14.00;99.90;;;;;;4899037;29;20113;-70
2021/09/13 01:46:30;;;;;;;11.98;6.07;;;14.00;99.90;;;;;;4899370;29;20028;-70
2021/09/13 01:48:56;;;;;;;11.32;6.25;;;14.00;99.90;;;;;;4899677;29;20458;-70
2021/09/13 01:51:21;;;;;;;8.65;5.05;;;14.00;99.90;;;;;;4899373;29;20103;-70
2021/09/13 01:53:47;;;;;;;6.82;4.90;;;14.10;99.90;;;;;;4899523;29;20029;-70
2021/09/13 01:56:13;;;;;;;8.55;4.88;;;14.00;99.90;;;;;;4898954;29;20025;-70
2021/09/13 01:58:39;;;;;;;6.68;5.40;;;14.00;99.90;;;;;;4898845;29;20347;-71
2021/09/13 02:01:05;;;;;;;7.93;5.32;;;14.10;99.90;;;;;;4897497;29;20138;-70
2021/09/13 02:03:31;;;;;;;10.15;5.20;;;14.00;99.90;;;;;;4899288;29;20036;-70
2021/09/13 02:05:57;;;;;;;10.55;5.60;;;14.10;99.90;;;;;;4897875;29;20037;-71
2021/09/13 02:08:22;;;;;;;5.82;4.70;;;14.10;99.90;;;;;;4898949;29;20540;-70
2021/09/13 02:10:48;;;;;;;6.90;5.22;;;14.00;99.90;;;;;;4898310;29;20036;-71
2021/09/13 02:13:14;;;;;;;5.30;4.43;;;14.10;99.90;;;;;;4898952;29;20056;-70
2021/09/13 02:15:40;;;;;;;13.50;4.75;;;14.10;99.90;;;;;;4898706;29;20385;-70
2021/09/13 02:18:06;;;;;;;9.55;5.03;;;14.10;99.90;;;;;;4898828;29;20509;-71
2021/09/13 02:20:31;;;;;;;9.65;5.45;;;14.00;99.90;;;;;;4897765;29;20060;-70
2021/09/13 02:22:57;;;;;;;7.47;4.60;;;14.00;99.90;;;;;;4898538;29;20174;-70
2021/09/13 02:25:22;;;;;;;6.80;4.38;;;14.00;99.90;;;;;;4899145;29;20024;-71
2021/09/13 02:27:48;;;;;;;5.35;4.10;;;14.00;99.90;;;;;;4897130;29;20051;-70
2021/09/13 02:30:14;;;;;;;8.10;4.80;;;14.00;99.90;;;;;;4898173;29;20053;-71
2021/09/13 02:32:39;;;;;;;6.32;4.82;;;13.90;99.90;;;;;;4898623;29;20032;-70
2021/09/13 02:35:06;;;;;;;7.35;4.47;;;13.90;99.90;;;;;;4898850;29;20426;-71
2021/09/13 02:37:36;;;;;;;7.70;4.90;;;13.90;99.90;;;;;;4898134;29;20029;-71
2021/09/13 02:40:03;;;;;;;6.60;4.50;;;13.90;99.90;;;;;;4897758;29;20055;-70
2021/09/13 02:42:29;;;;;;;9.30;4.28;;;13.90;99.90;;;;;;4896452;29;20084;-71
2021/09/13 02:44:54;;;;;;;8.38;4.28;;;13.90;99.90;;;;;;4912643;29;20132;-70
2021/09/13 02:47:20;;;;;;;5.07;4.03;;;13.90;99.90;;;;;;4897922;29;20493;-71
2021/09/13 02:49:45;;;;;;;7.95;4.45;;;13.90;99.90;;;;;;4897858;29;20040;-71
2021/09/13 02:52:11;;;;;;;7.22;4.43;;;13.90;99.90;;;;;;4897572;29;20523;-70
2021/09/13 02:54:37;;;;;;;4.63;3.90;;;13.90;99.90;;;;;;4898571;29;20025;-70
2021/09/13 02:57:02;;;;;;;6.47;3.75;;;13.90;99.90;;;;;;4897945;29;20029;-70
2021/09/13 02:59:28;;;;;;;6.22;3.97;;;13.90;99.90;;;;;;4896070;29;20498;-71
2021/09/13 03:01:54;;;;;;;7.82;3.90;;;13.90;99.90;;;;;;4897181;29;20088;-71
2021/09/13 03:04:19;;;;;;;5.70;4.25;;;13.80;99.90;;;;;;4911804;29;20509;-70
2021/09/13 03:06:45;;;;;;;5.68;4.88;;;13.80;99.90;;;;;;4897536;29;20051;-71
2021/09/13 03:09:10;;;;;;;7.05;4.50;;;13.80;99.90;;;;;;4897498;29;20032;-70
2021/09/13 03:11:36;;;;;;;3.95;3.58;;;13.80;99.90;;;;;;4897574;29;20451;-70
2021/09/13 03:14:02;;;;;;;9.23;4.03;;;13.80;99.90;;;;;;4898209;29;20029;-70
2021/09/13 03:16:27;;;;;;;8.20;3.47;;;13.80;99.90;;;;;;4897397;29;20080;-71
2021/09/13 03:18:53;;;;;;;4.25;3.45;;;13.70;99.90;;;;;;4897529;29;20028;-71
2021/09/13 03:21:18;;;;;;;5.40;3.53;;;13.70;99.90;;;;;;4897794;29;20028;-71
2021/09/13 03:23:44;;;;;;;4.03;3.00;;;13.70;99.90;;;;;;4897582;29;20040;-70
2021/09/13 03:26:10;;;;;;;4.22;3.15;;;13.70;99.90;;;;;;4896262;29;20037;-71
2021/09/13 03:28:35;;;;;;;4.95;3.50;;;13.70;99.90;;;;;;4896935;29;20382;-71
2021/09/13 03:31:02;;;;;;;7.15;4.30;;;13.70;99.90;;;;;;4896360;29;20048;-70
2021/09/13 03:33:28;;;;;;;6.40;3.67;;;13.70;99.90;;;;;;4897592;29;20104;-70
2021/09/13 03:35:54;;;;;;;5.50;3.55;;;13.70;99.90;;;;;;4897598;29;20037;-70
2021/09/13 03:38:19;;;;;;;4.95;3.40;;;13.70;99.90;;;;;;4898217;29;20373;-70
2021/09/13 03:40:45;;;;;;;3.85;3.20;;;13.80;99.90;;;;;;4896611;29;20028;-70
2021/09/13 03:43:10;;;;;;;5.07;3.35;;;13.70;99.90;;;;;;4897267;29;20033;-70
2021/09/13 03:45:36;;;;;;;8.45;3.10;;;13.70;99.90;;;;;;4897830;29;20084;-70
2021/09/13 03:48:02;;;;;;;2.67;2.47;;;13.70;99.90;;;;;;4911517;29;20041;-70
2021/09/13 03:50:27;;;;;;;4.78;3.13;;;13.70;99.90;;;;;;4897294;29;20092;-71
2021/09/13 03:52:53;;;;;;;8.82;2.70;;;13.60;99.90;;;;;;4897489;29;20032;-70
2021/09/13 03:55:19;;;;;;;3.20;2.72;;;13.60;99.90;;;;;;4897789;29;20494;-70
2021/09/13 03:57:44;;;;;;;2.92;2.63;;;13.60;99.90;;;;;;4897623;29;20036;-71
2021/09/13 04:00:11;;;;;;;3.33;3.00;;;13.50;99.90;;;;;;4897296;29;20028;-70
2021/09/13 04:02:38;;;;;;;6.35;3.28;;;13.50;99.90;;;;;;4898452;29;20122;-71
2021/09/13 04:05:04;;;;;;;6.07;3.20;;;13.50;99.90;;;;;;4899204;29;20499;-71
2021/09/13 04:07:39;;;;;;;3.25;2.95;;;13.50;99.90;;;;;;4899168;29;20040;-70
2021/09/13 04:12:49;;;;;;;5.28;3.05;;;13.50;99.90;;;;;;4900036;29;20047;-70
2021/09/13 04:15:15;;;;;;;3.08;2.75;;;13.40;99.90;;;;;;4899040;29;20485;-70
2021/09/13 04:17:41;;;;;;;4.28;2.72;;;13.40;99.90;;;;;;4899239;29;20045;-70
2021/09/13 04:20:08;;;;;;;5.25;3.33;;;13.40;99.90;;;;;;4900376;29;20112;-70
2021/09/13 04:22:33;;;;;;;4.65;3.25;;;13.40;99.90;;;;;;4901082;29;20036;-71
2021/09/13 04:25:00;;;;;;;7.15;3.03;;;13.40;99.90;;;;;;4899181;29;20041;-71
2021/09/13 04:27:26;;;;;;;5.88;3.53;;;13.40;99.90;;;;;;4898600;29;20032;-70
2021/09/13 04:29:53;;;;;;;6.10;2.83;;;13.40;99.90;;;;;;4902545;29;20063;-71
2021/09/13 04:32:19;;;;;;;4.80;2.75;;;13.40;99.90;;;;;;4901214;29;20044;-70
2021/09/13 04:34:45;;;;;;;5.88;3.05;;;13.40;99.90;;;;;;4901468;29;20107;-70
2021/09/13 04:37:10;;;;;;;3.50;2.90;;;13.40;99.90;;;;;;4901353;29;20128;-70
2021/09/13 04:39:36;;;;;;;6.03;3.53;;;13.40;99.90;;;;;;4900785;29;20032;-70
2021/09/13 04:42:02;;;;;;;5.38;3.60;;;13.40;99.90;;;;;;4900234;29;20401;-69
2021/09/13 04:44:27;;;;;;;9.30;3.72;;;13.50;99.90;;;;;;4900824;29;20020;-69
2021/09/13 04:46:53;;;;;;;4.78;3.00;;;13.50;99.90;;;;;;4900658;29;20068;-70
2021/09/13 04:49:20;;;;;;;6.15;4.13;;;13.50;99.90;;;;;;4901229;29;20052;-69
2021/09/13 04:51:46;;;;;;;9.93;2.88;;;13.60;99.90;;;;;;4898518;29;20048;-70
2021/09/13 04:54:11;;;;;;;8.18;3.85;;;13.60;99.90;;;;;;4900816;29;20036;-69
2021/09/13 04:56:37;;;;;;;4.53;3.47;;;13.60;99.90;;;;;;4900401;29;20100;-69
2021/09/13 04:59:03;;;;;;;6.45;3.47;;;13.60;99.90;;;;;;4900472;29;20032;-70
2021/09/13 05:01:28;;;;;;;4.65;3.00;;;13.70;99.90;;;;;;4898736;29;20385;-70
2021/09/13 05:03:54;;;;;;;5.50;3.00;;;13.70;99.90;;;;;;4899896;29;20024;-69
2021/09/13 05:06:20;;;;;;;4.93;3.13;;;13.70;99.90;;;;;;4899943;29;20100;-71
2021/09/13 05:08:45;;;;;;;6.05;2.92;;;13.80;99.90;;;;;;4900390;29;20021;-70
2021/09/13 05:11:11;;;;;;;4.65;3.60;;;13.80;99.90;;;;;;4900079;29;20052;-69
2021/09/13 05:13:37;;;;;;;7.68;4.00;;;13.90;99.90;;;;;;4900191;29;20033;-70
2021/09/13 05:16:02;;;;;;;5.00;3.33;;;13.90;99.90;;;;;;4900059;29;20036;-70
2021/09/13 05:18:28;;;;;;;5.47;3.45;;;13.90;99.90;;;;;;4900031;29;20381;-70
2021/09/13 05:20:54;;;;;;;6.45;3.63;;;13.90;99.90;;;;;;4899415;29;20036;-70
2021/09/13 05:23:19;;;;;;;5.47;3.65;;;13.90;99.90;;;;;;4899994;29;20504;-70
2021/09/13 05:25:45;;;;;;;9.43;4.30;;;13.90;99.90;;;;;;4899651;29;20116;-70
2021/09/13 05:28:10;;;;;;;6.75;4.20;;;13.90;99.90;;;;;;4900089;29;20029;-71
2021/09/13 05:30:36;;;;;;;4.80;3.70;;;13.90;99.90;;;;;;4899774;29;20036;-70
2021/09/13 05:33:02;;;;;;;6.55;3.30;;;13.90;99.90;;;;;;4897893;29;20041;-70
2021/09/13 05:35:28;;;;;;;5.93;3.55;;;14.00;99.90;;;;;;4899908;29;20490;-70
2021/09/13 05:37:53;;;;;;;5.80;3.85;;;14.00;99.90;;;;;;4899950;29;20039;-71
2021/09/13 05:40:19;;;;;;;5.53;3.58;;;14.00;99.90;;;;;;4899500;29;20482;-70
2021/09/13 05:42:44;;;;;;;10.27;4.05;;;14.00;99.90;;;;;;4898169;29;20414;-70
2021/09/13 05:45:10;;;;;;;7.63;3.85;;;14.00;99.90;;;;;;4899521;29;20393;-70
2021/09/13 05:47:36;;;;;;;13.80;4.35;;;14.00;99.90;;;;;;4912958;29;20025;-70
2021/09/13 05:50:02;;;;;;;8.40;4.50;;;14.00;99.90;;;;;;4899428;29;20195;-70
2021/09/13 05:52:28;;;;;;;6.18;4.28;;;14.10;99.90;;;;;;4898879;29;20051;-70
2021/09/13 05:54:53;;;;;;;9.52;4.68;;;14.10;99.90;;;;;;4899453;29;20037;-70
2021/09/13 05:57:19;;;;;;;9.93;5.22;;;14.10;99.90;;;;;;4897546;29;20402;-70
2021/09/13 05:59:45;;;;;;;6.93;4.18;;;14.00;99.90;;;;;;4899528;29;20020;-70
2021/09/13 06:02:11;;;;;;;7.10;4.43;;;14.00;99.90;;;;;;4898511;29;20043;-70
2021/09/13 06:04:37;;;;;;;7.90;5.25;;;14.10;99.90;;;;;;4898947;29;20509;-71
2021/09/13 06:07:04;;;;;;;9.23;3.92;;;14.10;99.90;;;;;;4899027;29;20052;-70
2021/09/13 06:09:31;;;;;;;11.10;5.03;;;14.20;99.90;;;;;;4897141;29;20048;-70
2021/09/13 06:11:56;;;;;;;11.30;5.03;;;14.20;99.90;;;;;;4899006;29;20284;-71
2021/09/13 06:14:22;;;;;;;8.63;4.63;;;14.20;99.90;;;;;;4898764;29;20034;-70
2021/09/13 06:16:48;;;;;;;6.55;4.05;;;14.20;99.90;;;;;;4898820;29;20043;-70
2021/09/13 06:19:13;;;;;;;7.30;4.45;;;14.20;99.90;;;;;;4898633;29;20064;-72
2021/09/13 06:21:39;;;;;;;11.93;5.45;;;14.30;99.90;;;;;;4898456;29;20367;-70
2021/09/13 06:24:04;;;;;;;9.68;4.22;;;14.30;99.90;;;;;;4898748;29;20032;-71
2021/09/13 06:26:30;;;;;;;7.68;4.18;;;14.30;99.90;;;;;;4898706;29;20081;-70
2021/09/13 06:28:56;;;;;;;10.45;4.88;;;14.40;99.90;;;;;;4898773;29;20064;-70
2021/09/13 06:31:22;;;;;;;9.40;5.65;;;14.50;99.90;;;;;;4897053;29;20084;-70
2021/09/13 06:33:47;;;;;;;13.50;5.78;;;14.50;99.90;;;;;;4897048;29;20088;-70
2021/09/13 06:36:13;;;;;;;14.30;5.78;;;14.50;99.90;;;;;;4897801;29;20537;-70
2021/09/13 06:38:39;;;;;;;8.73;5.88;;;14.60;99.90;;;;;;4898380;29;20084;-71
2021/09/13 06:41:05;;;;;;;9.68;5.32;;;14.60;99.90;;;;;;4898266;29;20433;-71
2021/09/13 06:43:30;;;;;;;11.77;5.63;;;14.70;99.90;;;;;;4896849;29;20052;-71
2021/09/13 06:46:08;;;;;;;12.45;6.18;;;14.80;99.90;;;;;;4896628;29;20033;-70
2021/09/13 06:48:34;;;;;;;13.43;5.90;;;14.80;99.90;;;;;;4898325;29;20033;-71
2021/09/13 06:50:59;;;;;;;13.40;5.85;;;14.80;99.90;;;;;;4897301;29;20493;-72
2021/09/13 06:53:25;;;;;;;8.23;5.70;;;15.00;99.90;;;;;;4898556;29;20032;-71
2021/09/13 06:55:51;;;;;;;11.07;5.32;;;15.10;99.90;;;;;;4897735;29;20035;-71
2021/09/13 06:58:16;;;;;;;8.00;4.63;;;15.20;99.90;;;;;;4898096;29;20071;-71
2021/09/13 07:00:42;;;;;;;9.05;5.20;;;15.30;99.90;;;;;;4897688;29;20029;-71
2021/09/13 07:03:08;;;;;;;10.77;5.65;;;15.50;99.90;;;;;;4897904;29;20116;-71
2021/09/13 07:05:33;;;;;;;12.55;5.47;;;15.60;99.90;;;;;;4897423;29;20494;-71
2021/09/13 07:07:59;;;;;;;9.95;5.88;;;15.60;99.90;;;;;;4910590;29;20033;-71
2021/09/13 07:10:25;;;;;;;12.55;6.18;;;15.70;99.90;;;;;;4897329;29;20059;-71
2021/09/13 07:12:52;;;;;;;8.00;4.85;;;15.80;99.90;;;;;;4897936;29;20127;-71
2021/09/13 07:15:18;;;;;;;10.77;5.55;;;15.90;99.90;;;;;;4898037;29;20021;-69
2021/09/13 07:17:44;;;;;;;12.35;5.60;;;15.90;99.90;;;;;;4898366;29;20046;-72
2021/09/13 07:20:10;;;;;;;14.77;6.05;;;15.90;99.90;;;;;;4897793;29;20039;-71
2021/09/13 07:22:36;;;;;;;8.57;4.55;;;16.00;99.90;;;;;;4896048;29;20032;-71
2021/09/13 07:25:03;;;;;;;7.75;5.68;;;16.10;99.90;;;;;;4911697;29;20035;-69
2021/09/13 07:27:28;;;;;;;10.93;5.05;;;16.20;99.90;;;;;;4897343;29;20035;-70
2021/09/13 07:29:59;;;;;;;8.73;4.90;;;16.20;99.90;;;;;;4895933;29;20477;-69
2021/09/13 07:32:25;;;;;;;9.85;4.32;;;16.30;99.90;;;;;;4900525;29;20486;-71
2021/09/13 07:34:50;;;;;;;7.20;3.67;;;16.40;99.90;;;;;;4894528;29;20043;-70
2021/09/13 07:37:16;;;;;;;9.77;5.25;;;16.50;99.90;;;;;;4895076;29;20043;-71
2021/09/13 07:39:41;;;;;;;8.85;4.00;;;16.60;99.90;;;;;;4897196;29;20027;-71
2021/09/13 07:42:07;;;;;;;10.95;4.97;;;16.60;99.90;;;;;;4893864;29;20108;-71
2021/09/13 07:44:32;;;;;;;13.25;4.72;;;16.70;99.90;;;;;;4895312;29;20414;-70
2021/09/13 07:46:58;;;;;;;11.45;4.03;;;16.80;99.90;;;;;;4897442;29;20402;-70
2021/09/13 07:49:24;;;;;;;8.80;4.25;;;16.90;99.90;;;;;;4897328;29;20045;-71
2021/09/13 07:51:49;;;;;;;7.50;3.75;;;17.00;99.90;;;;;;4897783;29;20619;-70
2021/09/13 07:54:15;;;;;;;6.28;3.63;;;17.10;99.90;;;;;;4897046;29;20111;-70
2021/09/13 07:56:41;;;;;;;2.90;1.88;;;17.20;99.90;;;;;;4897023;29;20040;-71
2021/09/13 07:59:07;;;;;;;3.90;2.45;;;17.30;99.90;;;;;;4897619;29;20041;-70
2021/09/13 08:01:33;;;;;;;3.88;2.30;;;17.40;99.90;;;;;;4897027;29;20525;-70
2021/09/13 08:03:59;;;;;;;4.40;2.30;;;17.30;99.90;;;;;;4899492;29;20029;-70
2021/09/13 08:06:24;;;;;;;2.42;1.77;;;17.20;99.90;;;;;;4901486;29;20049;-72
2021/09/13 08:08:51;;;;;;;2.50;1.67;;;17.30;99.90;;;;;;4900807;29;20119;-71
2021/09/13 08:11:16;;;;;;;2.25;1.60;;;17.30;99.90;;;;;;4901189;29;20083;-71
2021/09/13 08:13:43;;;;;;;5.18;2.65;;;17.20;99.90;;;;;;4915644;29;20032;-71
2021/09/13 08:16:10;;;;;;;4.13;2.63;;;17.20;99.90;;;;;;4900308;29;20027;-71
2021/09/13 08:18:37;;;;;;;4.93;2.70;;;17.20;99.90;;;;;;4899236;29;20462;-72
2021/09/13 08:21:12;;;;;;;5.13;2.60;;;17.30;99.90;;;;;;4899469;29;20040;-71
2021/09/13 08:23:38;;;;;;;6.78;3.47;;;17.30;99.90;;;;;;4901171;29;20024;-71
2021/09/13 08:26:06;;;;;;;2.08;1.88;;;17.40;99.90;;;;;;4901138;29;20028;-71
2021/09/13 08:28:32;;;;;;;;;;;17.50;99.90;;;;;;4901085;29;20338;-68
2021/09/13 08:30:58;;;;;;;2.25;1.83;;;17.70;99.90;;;;;;4901349;29;19971;-74
2021/09/13 08:33:23;;;;;;;2.47;1.40;;;17.80;99.90;;;;;;4900525;29;20442;-68
2021/09/13 08:35:50;;;;;;;4.35;1.80;;;17.90;99.90;;;;;;4900948;29;20048;-69
2021/09/13 08:38:16;;;;;;;2.25;1.60;;;18.10;99.90;;;;;;4900804;29;20021;-70
2021/09/13 08:40:42;;;;;;;2.58;1.45;;;18.10;99.90;;;;;;4900291;29;20032;-68
2021/09/13 08:43:09;;;;;;;3.55;1.70;;;18.00;99.90;;;;;;4900375;29;20393;-69
2021/09/13 08:45:50;;;;;;;2.45;1.73;;;17.80;99.90;;;;;;4900644;29;20028;-70
2021/09/13 08:53:41;;;;;;;;;;;17.90;99.90;;;;;;4900508;29;20541;-67
2021/09/13 08:56:13;;;;;;;4.40;1.67;;;18.00;99.90;;;;;;4900062;29;19911;-68
2021/09/13 08:58:40;;;;;;;2.03;1.80;;;18.10;99.90;;;;;;4899768;29;20483;-69
2021/09/13 09:01:06;;;;;;;4.47;1.45;;;18.10;99.90;;;;;;4899209;29;20021;-68
2021/09/13 09:03:35;;;;;;;1.85;1.63;;;18.30;99.90;;;;;;4893935;29;20036;-69
2021/09/13 09:06:01;;;;;;;4.35;2.20;;;18.40;99.90;;;;;;4895394;29;20057;-69
2021/09/13 09:08:32;;;;;;;5.32;2.00;;;18.40;99.90;;;;;;4896241;29;20060;-68
2021/09/13 09:11:02;;;;;;;5.18;2.00;;;18.40;99.90;;;;;;4912985;29;20454;-69
2021/09/13 09:13:42;;;;;;;6.82;1.55;;;18.50;99.90;;;;;;4898143;29;20024;-69
2021/09/13 09:16:10;;;;;;;1.92;1.30;;;18.50;99.90;;;;;;4897653;29;20072;-69
2021/09/13 09:18:47;;;;;;;6.97;2.13;;;18.50;99.90;;;;;;4899433;29;20029;-70
2021/09/13 09:21:30;;;;;;;2.30;1.30;;;18.50;99.90;;;;;;4899773;29;20155;-69
2021/09/13 09:24:00;;;;;;;1.83;1.05;;;18.40;99.90;;;;;;4900352;29;20081;-69
2021/09/13 09:26:27;;;;;;;24.92;6.15;;;18.50;99.90;;;;;;4899275;29;20099;-69
2021/09/13 09:28:55;;;;;;;1.95;0.47;;;18.50;99.90;;;;;;4898072;29;20037;-70
2021/09/13 09:31:44;;;;;;;1.25;0.60;;;18.40;99.90;;;;;;4914911;29;20538;-69
2021/09/13 09:34:21;;;;;;;2.97;0.50;;;18.30;99.90;;;;;;4889939;29;20040;-69
2021/09/13 09:36:59;;;;;;;1.48;0.63;;;18.30;99.90;;;;;;4897602;29;20092;-69
2021/09/13 09:39:29;;;;;;;4.72;1.83;;;18.20;99.90;;;;;;4898635;29;20116;-69
2021/09/13 09:41:56;;;;;;;3.72;0.98;;;18.20;99.90;;;;;;4898536;29;20032;-69
2021/09/13 09:44:23;;;;;;;3.10;0.77;;;18.30;99.90;;;;;;4897684;29;20532;-69
2021/09/13 09:46:49;;;;;;;2.47;0.65;;;18.40;99.90;;;;;;4899234;29;20020;-70
2021/09/13 09:49:20;;;;;;;2.38;0.40;;;18.50;99.90;;;;;;4900212;29;20084;-69
2021/09/13 09:51:55;;;;;;;3.65;0.68;;;18.50;99.90;;;;;;4899846;29;20108;-70
2021/09/13 09:54:26;;;;;;;2.40;0.68;;;18.60;99.90;;;;;;4897679;29;20560;-69
2021/09/13 09:57:07;;;;;;;0.52;0.52;;;18.60;99.90;;;;;;4907193;29;20071;-71
2021/09/13 09:59:34;;;;;;;2.10;0.70;;;18.70;99.90;;;;;;4900449;29;20032;-70
2021/09/13 10:01:59;;;;;;;0.47;0.30;;;18.70;99.90;;;;;;4901758;29;20412;-71
2021/09/13 10:04:28;;;;;;;1.27;0.40;;;18.70;99.90;;;;;;4916371;29;20041;-70
2021/09/13 10:06:59;;;;;;;2.03;0.47;;;18.70;99.90;;;;;;4900014;29;20525;-71
2021/09/13 10:09:26;;;;;;;1.95;0.60;;;18.70;99.90;;;;;;4902666;29;20064;-72
2021/09/13 10:11:54;;;;;;;;;;;18.70;99.90;;;;;;4902863;29;20132;-70
2021/09/13 10:14:23;;;;;;;1.52;0.88;;;18.80;99.90;;;;;;4900692;29;20380;-71
2021/09/13 10:16:50;;;;;;;1.10;0.82;;;19.00;99.90;;;;;;4896147;29;20128;-71
2021/09/13 10:19:16;;;;;;;1.30;0.60;;;19.20;99.90;;;;;;4909225;29;20503;-71
2021/09/13 10:21:42;;;;;;;1.30;0.47;;;19.10;99.90;;;;;;4894031;29;20040;-71
2021/09/13 10:24:17;;;;;;;2.95;0.50;;;19.20;99.90;;;;;;4894110;29;20774;-71
2021/09/13 10:26:54;;;;;;;0.47;0.40;;;19.30;99.90;;;;;;4897446;29;20025;-70
2021/09/13 10:29:24;;;;;;;0.40;0.30;;;19.30;99.90;;;;;;4917183;29;20052;-71
2021/09/13 10:31:50;;;;;;;0.80;0.40;;;19.40;99.90;;;;;;4901413;29;20028;-71
2021/09/13 10:34:36;;;;;;;4.30;0.45;;;19.50;99.90;;;;;;4899568;29;20064;-70
2021/09/13 10:37:06;;;;;;;3.40;0.52;;;19.50;99.90;;;;;;4890325;29;20028;-71
2021/09/13 10:40:03;;;;;;;0.82;0.40;;;19.50;99.90;;;;;;4890985;29;20029;-71
2021/09/13 10:42:32;;;;;;;1.75;0.20;;;19.50;99.90;;;;;;4891020;29;20024;-71
2021/09/13 10:45:12;;;;;;;0.45;0.30;;;19.50;99.90;;;;;;4891284;29;20486;-70
2021/09/13 10:47:41;;;;;;;2.22;0.30;;;19.40;99.90;;;;;;4893814;29;20500;-71
2021/09/13 10:50:26;;;;;;;0.93;0.50;;;19.40;99.90;;;;;;4890998;29;20029;-71
2021/09/13 10:52:56;;;;;;;2.25;0.40;;;19.40;99.90;;;;;;4890115;29;20064;-71
2021/09/13 10:55:28;;;;;;;1.95;0.40;;;19.40;99.90;;;;;;4888889;29;20037;-71
2021/09/13 10:57:59;;;;;;;1.95;0.50;;;19.40;99.90;;;;;;4890037;29;20033;-70
2021/09/13 11:00:40;;;;;;;0.77;0.77;;;19.60;99.90;;;;;;4887969;29;20545;-70
2021/09/13 11:06:14;;;;;;;0.80;0.20;;;19.70;99.90;;;;;;4888841;29;20059;-71
2021/09/13 11:08:44;;;;;;;2.08;0.40;;;19.60;99.90;;;;;;4898387;29;20032;-71
2021/09/13 11:11:19;;;;;;;0.65;0.40;;;19.60;99.90;;;;;;4893037;29;20044;-71
2021/09/13 11:13:47;;;;;;;1.20;0.77;;;19.50;99.90;;;;;;4890213;29;20024;-70
2021/09/13 11:16:17;;;;;;;0.98;0.30;;;19.50;99.90;;;;;;4892048;29;20040;-70
2021/09/13 11:18:45;;;;;;;0.80;0.30;;;19.40;99.90;;;;;;4894236;29;20032;-71
2021/09/13 11:21:34;;;;;;;1.55;0.28;;;19.30;99.90;;;;;;4910967;29;20430;-71
2021/09/13 11:24:11;;;;;;;0.30;0.20;;;19.30;99.90;;;;;;4898086;29;20172;-72
2021/09/13 11:26:39;;;;;;;0.20;0.20;;;19.40;99.90;;;;;;4896375;29;20108;-71
2021/09/13 11:29:09;;;;;;;0.25;0.25;;;19.40;99.90;;;;;;4912263;29;20607;-72
2021/09/13 11:31:43;;;;;;;0.77;0.20;;;19.40;99.90;;;;;;4893913;29;20111;-70
2021/09/13 11:34:14;;;;;;;1.00;0.30;;;19.40;99.90;;;;;;4893955;29;20051;-71
2021/09/13 11:36:51;;;;;;;2.65;1.38;;;19.50;99.90;;;;;;4889991;29;20029;-70
2021/09/13 11:39:20;;;;;;;0.45;0.25;;;19.60;99.90;;;;;;4893050;29;20103;-71
2021/09/13 11:42:04;;;;;;;1.33;0.38;;;19.60;99.90;;;;;;4886993;29;20036;-71
2021/09/13 11:44:40;;;;;;;0.30;0.28;;;19.70;99.90;;;;;;4890595;29;20393;-71
2021/09/13 11:47:07;;;;;;;1.27;0.40;;;19.80;99.90;;;;;;4901345;29;20040;-71
2021/09/13 11:49:36;;;;;;;1.75;0.63;;;19.90;99.90;;;;;;4895877;29;20605;-71
2021/09/13 11:52:08;;;;;;;4.70;1.05;;;20.00;99.90;;;;;;4897849;29;20025;-71
2021/09/13 11:54:49;;;;;;;3.13;0.70;;;20.00;99.90;;;;;;4897849;29;20044;-71
2021/09/13 11:57:42;;;;;;;6.93;0.70;;;19.90;99.90;;;;;;4908754;29;20052;-72
2021/09/13 12:00:24;;;;;;;1.05;0.57;;;19.80;99.90;;;;;;4882755;29;20076;-71
2021/09/13 12:02:51;;;;;;;3.42;0.93;;;19.80;99.90;;;;;;4914756;29;20440;-71
2021/09/13 12:05:38;;;;;;;1.70;0.73;;;19.70;99.90;;;;;;4897856;29;20490;-71
2021/09/13 12:08:09;;;;;;;0.65;0.65;;;19.60;99.90;;;;;;4896689;29;20017;-71
2021/09/13 12:10:36;;;;;;;2.47;0.82;;;19.60;99.90;;;;;;4892804;29;20025;-71
2021/09/13 12:13:09;;;;;;;1.58;0.57;;;19.40;99.90;;;;;;4890118;29;20028;-69
2021/09/13 12:15:35;;;;;;;2.55;0.80;;;19.40;99.90;;;;;;4908568;29;20043;-72
2021/09/13 12:18:09;;;;;;;2.58;0.68;;;19.60;99.90;;;;;;4897383;29;20036;-71
2021/09/13 12:20:38;;;;;;;9.52;2.80;;;19.50;99.90;;;;;;4889861;29;20039;-71
2021/09/13 12:23:09;;;;;;;1.23;0.70;;;19.50;99.90;;;;;;4893103;29;20852;-71
2021/09/13 12:25:45;;;;;;;3.10;1.00;;;19.50;99.90;;;;;;4893585;29;20080;-71
2021/09/13 12:28:12;;;;;;;2.13;1.10;;;19.40;99.90;;;;;;4895532;29;20032;-71
2021/09/13 12:30:42;;;;;;;1.67;0.93;;;19.40;99.90;;;;;;4884705;29;20116;-71
2021/09/13 12:33:09;;;;;;;8.25;1.17;;;19.40;99.90;;;;;;4890404;29;20093;-70
2021/09/13 12:35:41;;;;;;;3.28;0.93;;;19.30;99.90;;;;;;4888516;29;20394;-70
2021/09/13 12:38:11;;;;;;;3.83;0.93;;;19.40;99.90;;;;;;4896440;29;20044;-70
2021/09/13 12:40:57;;;;;;;4.38;1.35;;;19.50;99.90;;;;;;4906140;29;20039;-70
2021/09/13 12:43:26;;;;;;;3.58;0.57;;;19.40;99.90;;;;;;4894907;29;20025;-71
2021/09/13 12:46:08;;;;;;;2.50;0.80;;;19.40;99.90;;;;;;4893792;29;20017;-71
2021/09/13 12:48:37;;;;;;;2.25;0.70;;;19.40;99.90;;;;;;4896272;29;20032;-72
2021/09/13 12:51:03;;;;;;;0.57;0.55;;;19.30;99.90;;;;;;4898762;29;20389;-71
2021/09/13 12:53:30;;;;;;;7.03;1.90;;;19.40;99.90;;;;;;4898565;29;20036;-70
2021/09/13 12:56:14;;;;;;;1.65;0.82;;;19.50;99.90;;;;;;4898498;29;20059;-71
2021/09/13 12:58:40;;;;;;;4.82;1.20;;;19.50;99.90;;;;;;4899917;29;20092;-71
2021/09/13 13:01:24;;;;;;;1.20;0.50;;;19.50;99.90;;;;;;4891762;29;20063;-71